Harbor Isle, New York
Current Conditions -  °F | °C
As of 6:51 PM on Thursday 27 Nov 2014 (Local Time) from KJFK Reporting Station
Broken Clouds Broken Clouds  
Wind Chill: 31°   Ceiling: 3800
Heat Index: 38°   Visibility: 10mi
Dew Point: 27°   Wind: 10mph
Humidity: 65%   Direction: 310°NW
Pressure: 30.05"   Gusts: NA
Location:  40.6062°N, 73.6508°W
Report Text: KJFK 272351Z 31009KT 10SM FEW027 BKN038 03/M03 A3005 RMK AO2 SLP173 60000 T00331028 10039 20028 51015 $
Loading
Personal Weather Stations






























Interactive Weather Map New forecast layout! Learn more

10-Day Weather Forecast

Advertisements
Track Severe Weather on mobile